Time;durP1;ratioP1;P1;durP2;ratioP2;P2;SDS_P1;SDS_P2;PMS_P1;PMS_P2;Temp;Humidity;BMP_temperature;BMP_pressure;BME280_temperature;BME280_humidity;BME280_pressure;Samples;Min_cycle;Max_cycle;Signal;HPM_P1;HPM_P2
2021/06/20 00:01:32;;;;;;;8.40;7.67;;;23.60;99.90;;;;;;4914106;29;20469;-73
2021/06/20 00:03:59;;;;;;;9.03;8.13;;;23.70;99.90;;;;;;4914213;29;20470;-74
2021/06/20 00:06:29;;;;;;;8.90;8.00;;;23.80;99.90;;;;;;4914078;29;20493;-74
2021/06/20 00:08:58;;;;;;;10.77;8.60;;;23.90;99.90;;;;;;4914072;29;20489;-74
2021/06/20 00:11:27;;;;;;;9.30;7.70;;;23.90;99.90;;;;;;4913691;29;20938;-74
2021/06/20 00:13:54;;;;;;;8.37;7.57;;;24.00;99.90;;;;;;4914072;29;20469;-74
2021/06/20 00:16:21;;;;;;;8.83;7.90;;;24.00;99.90;;;;;;4914012;29;20493;-73
2021/06/20 00:18:48;;;;;;;8.57;7.80;;;24.00;99.90;;;;;;4914134;29;20833;-73
2021/06/20 00:21:14;;;;;;;9.13;8.23;;;24.00;99.90;;;;;;4913785;29;20477;-73
2021/06/20 00:23:41;;;;;;;9.63;8.73;;;23.90;99.90;;;;;;4913913;29;20984;-74
2021/06/20 00:26:09;;;;;;;9.50;8.50;;;23.90;99.90;;;;;;4914028;29;20819;-74
2021/06/20 00:28:36;;;;;;;10.80;8.07;;;23.90;99.90;;;;;;4913815;29;20500;-74
2021/06/20 00:31:03;;;;;;;7.73;7.13;;;23.90;99.90;;;;;;4913462;29;20556;-74
2021/06/20 00:33:30;;;;;;;8.23;7.53;;;23.90;99.90;;;;;;4916436;29;20467;-73
2021/06/20 00:35:58;;;;;;;10.23;7.90;;;23.90;99.90;;;;;;4932180;29;20476;-74
2021/06/20 00:38:25;;;;;;;8.17;7.33;;;24.00;99.90;;;;;;4932226;29;20464;-74
2021/06/20 00:40:51;;;;;;;8.97;8.07;;;23.90;99.90;;;;;;4930735;29;20469;-74
2021/06/20 00:43:19;;;;;;;7.93;7.20;;;24.00;99.90;;;;;;4932706;29;20953;-73
2021/06/20 00:45:46;;;;;;;12.87;7.83;;;24.00;99.90;;;;;;4931725;29;20460;-74
2021/06/20 00:48:13;;;;;;;10.83;7.77;;;24.00;99.90;;;;;;4932033;29;20927;-74
2021/06/20 00:50:40;;;;;;;15.70;8.10;;;24.00;99.90;;;;;;4932061;29;20465;-73
2021/06/20 00:53:08;;;;;;;10.80;8.47;;;24.00;99.90;;;;;;4932133;29;20464;-73
2021/06/20 00:55:37;;;;;;;15.90;7.40;;;24.00;99.90;;;;;;4932177;29;20551;-73
2021/06/20 00:58:06;;;;;;;17.97;8.43;;;24.10;99.90;;;;;;4932080;29;20481;-73
2021/06/20 01:00:35;;;;;;;16.60;8.17;;;24.10;99.90;;;;;;4931708;29;20523;-73
2021/06/20 01:03:02;;;;;;;15.90;7.63;;;24.20;99.90;;;;;;4932219;29;20480;-73
2021/06/20 01:05:29;;;;;;;20.77;9.73;;;24.30;99.90;;;;;;4932286;29;20464;-73
2021/06/20 01:07:57;;;;;;;21.27;8.47;;;24.30;99.90;;;;;;4932127;29;20873;-73
2021/06/20 01:10:26;;;;;;;21.40;8.77;;;24.40;99.90;;;;;;4931877;29;20468;-73
2021/06/20 01:12:52;;;;;;;23.10;8.93;;;24.50;99.90;;;;;;4932354;29;20990;-73
2021/06/20 01:15:19;;;;;;;21.83;8.70;;;24.60;99.90;;;;;;4932222;29;20475;-74
2021/06/20 01:17:48;;;;;;;17.70;8.20;;;24.60;99.90;;;;;;4931679;29;20491;-74
2021/06/20 01:20:17;;;;;;;32.40;10.20;;;24.60;99.90;;;;;;4931704;29;20469;-72
2021/06/20 01:22:46;;;;;;;20.67;8.20;;;24.70;99.90;;;;;;4931939;29;20468;-73
2021/06/20 01:25:16;;;;;;;25.00;8.30;;;24.70;99.90;;;;;;4932271;29;20464;-73
2021/06/20 01:27:45;;;;;;;21.63;9.90;;;24.70;99.90;;;;;;4931953;29;20500;-73
2021/06/20 01:30:15;;;;;;;20.00;8.47;;;24.70;99.90;;;;;;4931623;29;20467;-73
2021/06/20 01:32:42;;;;;;;21.80;8.13;;;24.80;99.90;;;;;;4932100;29;20473;-72
2021/06/20 01:35:11;;;;;;;22.73;8.50;;;24.70;99.90;;;;;;4931516;29;20469;-73
2021/06/20 01:37:39;;;;;;;17.73;7.10;;;24.80;99.90;;;;;;4932050;29;20894;-72
2021/06/20 01:40:10;;;;;;;26.20;8.70;;;24.70;99.90;;;;;;4931352;29;20826;-73
2021/06/20 01:42:38;;;;;;;17.90;6.93;;;24.70;99.90;;;;;;4931982;29;20472;-73
2021/06/20 01:45:08;;;;;;;21.70;8.47;;;24.70;99.90;;;;;;4931887;29;20464;-73
2021/06/20 01:47:35;;;;;;;24.90;8.37;;;24.70;99.90;;;;;;4931450;29;20489;-73
2021/06/20 01:50:05;;;;;;;17.13;8.00;;;24.70;99.90;;;;;;4931268;29;20493;-73
2021/06/20 01:52:32;;;;;;;22.40;8.43;;;24.70;99.90;;;;;;4931822;29;20478;-73
2021/06/20 01:54:59;;;;;;;22.03;7.87;;;24.60;99.90;;;;;;4931808;29;20475;-73
2021/06/20 01:57:29;;;;;;;23.63;7.63;;;24.60;99.90;;;;;;4934752;29;20484;-73
2021/06/20 01:59:57;;;;;;;26.47;9.40;;;24.60;99.90;;;;;;4934681;29;20545;-73
2021/06/20 02:02:25;;;;;;;20.13;8.13;;;24.60;99.90;;;;;;4935551;29;20474;-73
2021/06/20 02:04:55;;;;;;;19.80;8.57;;;24.60;99.90;;;;;;4935329;29;20469;-73
2021/06/20 02:07:22;;;;;;;26.30;9.33;;;24.60;99.90;;;;;;4935465;29;20520;-73
2021/06/20 02:09:49;;;;;;;14.13;7.37;;;24.50;99.90;;;;;;4934888;29;20488;-73
2021/06/20 02:12:17;;;;;;;24.73;8.23;;;24.50;99.90;;;;;;4935129;29;20468;-73
2021/06/20 02:14:45;;;;;;;20.13;7.57;;;24.40;99.90;;;;;;4935512;29;20468;-73
2021/06/20 02:17:23;;;;;;;22.50;7.90;;;24.50;99.90;;;;;;4934808;29;20492;-73
2021/06/20 02:19:50;;;;;;;19.90;8.47;;;24.40;99.90;;;;;;4935195;29;20464;-73
2021/06/20 02:22:17;;;;;;;17.13;6.80;;;24.40;99.90;;;;;;4935668;29;20465;-73
2021/06/20 02:24:43;;;;;;;19.47;8.77;;;24.40;99.90;;;;;;4934946;29;20476;-73
2021/06/20 02:27:12;;;;;;;23.07;8.00;;;24.40;99.90;;;;;;4935077;29;20495;-73
2021/06/20 02:29:40;;;;;;;20.00;8.40;;;24.30;99.90;;;;;;4934881;29;20493;-73
2021/06/20 02:32:08;;;;;;;15.23;7.97;;;24.30;99.90;;;;;;4935121;29;20853;-73
2021/06/20 02:34:35;;;;;;;20.90;7.67;;;24.30;99.90;;;;;;5005763;23;20928;-69
2021/06/20 02:37:02;;;;;;;12.17;6.97;;;24.30;99.90;;;;;;4933123;29;20476;-68
2021/06/20 02:39:29;;;;;;;15.57;7.60;;;24.30;99.90;;;;;;4915873;29;20469;-69
2021/06/20 02:41:56;;;;;;;20.80;8.57;;;24.20;99.90;;;;;;4916290;29;20814;-69
2021/06/20 02:44:22;;;;;;;20.80;8.33;;;24.20;99.90;;;;;;4915809;29;20468;-69
2021/06/20 02:46:49;;;;;;;19.67;8.17;;;24.20;99.90;;;;;;4916048;29;21001;-69
2021/06/20 02:49:17;;;;;;;20.00;7.80;;;24.20;99.90;;;;;;4915434;29;20863;-69
2021/06/20 02:51:44;;;;;;;27.43;8.03;;;24.20;99.90;;;;;;4915816;29;20481;-69
2021/06/20 02:54:11;;;;;;;18.33;7.57;;;24.20;99.90;;;;;;4915579;29;21036;-68
2021/06/20 02:56:38;;;;;;;15.43;8.07;;;24.20;99.90;;;;;;4915565;29;20501;-68
2021/06/20 02:59:05;;;;;;;15.90;6.97;;;24.10;99.90;;;;;;4915854;29;20462;-69
2021/06/20 03:01:32;;;;;;;21.93;8.40;;;24.10;99.90;;;;;;4915184;29;20472;-68
2021/06/20 03:03:59;;;;;;;14.70;7.60;;;24.10;99.90;;;;;;4916040;29;20473;-69
2021/06/20 03:06:27;;;;;;;14.93;7.90;;;24.10;99.90;;;;;;4914898;29;20493;-69
2021/06/20 03:08:54;;;;;;;16.57;6.70;;;24.00;99.90;;;;;;4914737;29;20492;-68
2021/06/20 03:11:21;;;;;;;13.40;7.23;;;24.00;99.90;;;;;;4914892;29;20470;-68
2021/06/20 03:13:48;;;;;;;20.97;8.20;;;23.90;99.90;;;;;;4915452;29;20470;-68
2021/06/20 03:16:17;;;;;;;17.33;8.13;;;24.00;99.90;;;;;;4915638;29;20825;-69
2021/06/20 03:18:44;;;;;;;23.37;7.80;;;23.90;99.90;;;;;;4915040;29;20464;-68
2021/06/20 03:21:11;;;;;;;16.50;7.83;;;23.90;99.90;;;;;;4915220;29;20853;-68
2021/06/20 03:23:39;;;;;;;15.43;7.00;;;23.90;99.90;;;;;;4915173;29;20473;-68
2021/06/20 03:26:06;;;;;;;18.80;8.20;;;23.90;99.90;;;;;;4915103;29;20480;-68
2021/06/20 03:28:33;;;;;;;15.17;7.17;;;23.80;99.90;;;;;;4914852;29;20472;-69
2021/06/20 03:31:00;;;;;;;18.30;7.63;;;23.80;99.90;;;;;;4914660;29;20469;-68
2021/06/20 03:33:29;;;;;;;20.17;7.67;;;23.80;99.90;;;;;;4915310;29;20896;-68
2021/06/20 03:35:56;;;;;;;18.20;7.90;;;23.80;99.90;;;;;;4914789;29;20516;-68
2021/06/20 03:38:23;;;;;;;16.33;8.17;;;23.80;99.90;;;;;;4915048;29;20529;-68
2021/06/20 03:40:51;;;;;;;14.43;7.70;;;23.80;99.90;;;;;;4914523;29;20541;-68
2021/06/20 03:43:18;;;;;;;17.33;6.70;;;23.80;99.90;;;;;;4914985;29;20474;-68
2021/06/20 03:45:45;;;;;;;16.20;7.67;;;23.70;99.90;;;;;;4914815;29;20472;-68
2021/06/20 03:48:11;;;;;;;17.83;7.87;;;23.70;99.90;;;;;;4914760;29;20857;-68
2021/06/20 03:50:38;;;;;;;20.03;7.87;;;23.70;99.90;;;;;;4914248;29;20505;-68
2021/06/20 03:53:05;;;;;;;16.43;7.80;;;23.60;99.90;;;;;;4915120;29;20469;-68
2021/06/20 03:55:32;;;;;;;17.57;8.43;;;23.60;99.90;;;;;;4914250;29;20560;-68
2021/06/20 03:58:01;;;;;;;17.00;6.83;;;23.50;99.90;;;;;;4914673;29;20493;-68
2021/06/20 04:00:28;;;;;;;21.20;8.33;;;23.50;99.90;;;;;;4913995;29;20941;-68
2021/06/20 04:02:55;;;;;;;12.70;7.10;;;23.40;99.90;;;;;;4914664;29;21309;-68
2021/06/20 04:05:22;;;;;;;14.80;7.80;;;23.40;99.90;;;;;;4914537;29;20466;-68
2021/06/20 04:07:49;;;;;;;17.90;7.77;;;23.40;99.90;;;;;;4914241;29;20493;-68
2021/06/20 04:10:15;;;;;;;12.97;6.90;;;23.30;99.90;;;;;;4914133;29;20937;-68
2021/06/20 04:12:42;;;;;;;12.43;7.90;;;23.30;99.90;;;;;;4913669;29;20536;-68
2021/06/20 04:15:11;;;;;;;14.57;6.67;;;23.30;99.90;;;;;;4914269;29;20984;-68
2021/06/20 04:17:38;;;;;;;15.97;7.77;;;23.30;99.90;;;;;;4913955;29;20493;-68
2021/06/20 04:20:07;;;;;;;16.63;7.10;;;23.20;99.90;;;;;;4914279;29;20535;-69
2021/06/20 04:22:34;;;;;;;11.53;6.50;;;23.30;99.90;;;;;;4914130;29;20520;-70
2021/06/20 04:25:01;;;;;;;15.30;7.77;;;23.30;99.90;;;;;;4913988;29;20469;-70
2021/06/20 04:27:28;;;;;;;15.33;7.10;;;23.30;99.90;;;;;;4913974;29;20511;-70
2021/06/20 04:29:54;;;;;;;16.90;8.23;;;23.30;99.90;;;;;;4913351;29;20496;-69
2021/06/20 04:32:23;;;;;;;19.13;6.33;;;23.30;99.90;;;;;;4913832;29;20558;-69
2021/06/20 04:34:49;;;;;;;11.33;6.80;;;23.20;99.90;;;;;;4914057;29;20477;-70
2021/06/20 04:37:16;;;;;;;12.23;6.77;;;23.20;99.90;;;;;;4913778;29;20527;-69
2021/06/20 04:39:43;;;;;;;11.33;6.27;;;23.20;99.90;;;;;;4913388;29;20457;-69
2021/06/20 04:42:11;;;;;;;16.50;6.77;;;23.10;99.90;;;;;;4913799;29;20465;-69
2021/06/20 04:44:44;;;;;;;11.13;6.90;;;23.10;99.90;;;;;;4913659;29;20855;-69
2021/06/20 04:47:11;;;;;;;17.57;7.77;;;23.00;99.90;;;;;;4913924;29;20493;-69
2021/06/20 04:49:39;;;;;;;8.37;6.13;;;23.00;99.90;;;;;;4912911;29;20497;-69
2021/06/20 04:52:07;;;;;;;14.67;6.57;;;22.90;99.90;;;;;;4913770;29;20974;-69
2021/06/20 04:54:36;;;;;;;21.03;8.00;;;22.70;99.90;;;;;;4913582;29;20461;-70
2021/06/20 04:57:04;;;;;;;14.10;7.40;;;22.60;99.90;;;;;;4913763;29;21112;-69
2021/06/20 04:59:30;;;;;;;11.13;6.70;;;22.60;99.90;;;;;;4912884;29;20834;-69
2021/06/20 05:01:57;;;;;;;13.63;6.77;;;22.50;99.90;;;;;;4913872;29;20468;-69
2021/06/20 05:04:24;;;;;;;13.47;6.83;;;22.60;99.90;;;;;;4913598;29;20963;-70
2021/06/20 05:06:52;;;;;;;18.40;6.93;;;22.60;99.90;;;;;;4913505;29;20496;-69
2021/06/20 05:09:19;;;;;;;13.73;7.37;;;22.60;99.90;;;;;;4913019;29;20912;-69
2021/06/20 05:11:45;;;;;;;9.73;6.57;;;22.60;99.90;;;;;;4913531;29;20465;-69
2021/06/20 05:14:12;;;;;;;18.13;6.40;;;22.60;99.90;;;;;;4913715;29;20473;-69
2021/06/20 05:16:39;;;;;;;13.77;6.30;;;22.60;99.90;;;;;;4913278;29;20482;-69
2021/06/20 05:19:06;;;;;;;12.43;6.67;;;22.60;99.90;;;;;;4913209;29;21000;-69
2021/06/20 05:21:34;;;;;;;10.80;6.33;;;22.60;99.90;;;;;;4912982;29;20472;-69
2021/06/20 05:24:04;;;;;;;11.70;6.77;;;22.60;99.90;;;;;;4913287;29;20491;-70
2021/06/20 05:26:40;;;;;;;12.73;5.80;;;22.60;99.90;;;;;;4913146;29;20490;-69
2021/06/20 05:29:07;;;;;;;18.60;5.70;;;22.60;99.90;;;;;;4912755;29;20816;-69
2021/06/20 05:31:33;;;;;;;9.30;5.53;;;22.60;99.90;;;;;;4914527;29;20469;-70
2021/06/20 05:34:00;;;;;;;7.97;4.80;;;22.70;99.90;;;;;;4917426;29;20470;-69
2021/06/20 05:36:27;;;;;;;10.87;5.40;;;22.60;99.90;;;;;;4916740;29;20508;-69
2021/06/20 05:38:54;;;;;;;11.20;5.30;;;22.70;99.90;;;;;;4917579;29;20579;-69
2021/06/20 05:41:22;;;;;;;13.13;5.27;;;22.70;99.90;;;;;;4916563;29;20473;-69
2021/06/20 05:43:49;;;;;;;12.10;5.57;;;22.70;99.90;;;;;;4917203;29;20469;-69
2021/06/20 05:46:18;;;;;;;12.73;5.20;;;22.70;99.90;;;;;;4916937;29;20470;-69
2021/06/20 05:48:45;;;;;;;10.07;5.00;;;22.70;99.90;;;;;;4916848;29;20552;-69
2021/06/20 05:51:12;;;;;;;9.00;5.13;;;22.70;99.90;;;;;;4916262;29;20489;-69
2021/06/20 05:53:38;;;;;;;10.97;5.33;;;22.70;99.90;;;;;;4916680;29;20469;-69
2021/06/20 05:56:06;;;;;;;9.60;5.20;;;22.70;99.90;;;;;;4916791;29;20461;-69
2021/06/20 05:58:34;;;;;;;10.70;4.97;;;22.70;99.90;;;;;;4916944;29;20469;-69
2021/06/20 06:01:02;;;;;;;9.93;5.33;;;22.70;99.90;;;;;;4916176;29;20879;-69
2021/06/20 06:03:28;;;;;;;10.73;4.70;;;22.80;99.90;;;;;;4916690;29;20469;-69
2021/06/20 06:05:55;;;;;;;8.67;4.83;;;22.70;99.90;;;;;;4916629;29;20461;-69
2021/06/20 06:08:22;;;;;;;9.97;4.80;;;22.70;99.90;;;;;;4915547;29;20497;-69
2021/06/20 06:10:48;;;;;;;6.93;4.40;;;22.70;99.90;;;;;;4914920;29;21019;-68
2021/06/20 06:13:15;;;;;;;9.43;4.20;;;22.70;99.90;;;;;;4915326;29;20469;-68
2021/06/20 06:15:43;;;;;;;8.00;4.60;;;22.70;99.90;;;;;;4915951;29;20469;-68
2021/06/20 06:18:10;;;;;;;9.57;4.70;;;22.80;99.90;;;;;;4916127;29;20489;-68
2021/06/20 06:20:37;;;;;;;7.77;4.73;;;22.90;99.90;;;;;;4915026;29;20469;-68
2021/06/20 06:23:04;;;;;;;13.70;4.90;;;23.00;99.90;;;;;;4915307;29;20475;-68
2021/06/20 06:25:30;;;;;;;8.70;4.27;;;23.00;99.90;;;;;;4915139;29;20469;-68
2021/06/20 06:27:58;;;;;;;7.27;4.13;;;23.10;99.90;;;;;;4916454;29;20857;-68
2021/06/20 06:30:25;;;;;;;9.70;4.70;;;23.10;99.90;;;;;;4915483;29;20489;-68
2021/06/20 06:32:53;;;;;;;8.40;4.87;;;23.10;99.90;;;;;;4916312;29;20475;-68
2021/06/20 06:35:20;;;;;;;8.63;3.97;;;23.20;99.90;;;;;;4915894;29;20473;-68
2021/06/20 06:37:49;;;;;;;8.97;4.83;;;23.30;99.90;;;;;;4915935;29;20489;-68
2021/06/20 06:40:16;;;;;;;9.60;4.00;;;23.30;99.90;;;;;;4915458;29;20549;-68
2021/06/20 06:42:43;;;;;;;6.50;4.00;;;23.20;99.90;;;;;;4914731;29;20466;-68
2021/06/20 06:45:11;;;;;;;7.63;4.20;;;23.20;99.90;;;;;;4915949;29;20949;-68
2021/06/20 06:47:38;;;;;;;7.17;4.20;;;23.20;99.90;;;;;;4915738;29;20496;-68
2021/06/20 06:50:08;;;;;;;10.13;4.60;;;23.20;99.90;;;;;;4915492;29;20581;-68
2021/06/20 06:52:35;;;;;;;6.63;3.77;;;23.20;99.90;;;;;;4915731;29;20473;-68
2021/06/20 06:55:02;;;;;;;5.57;3.53;;;23.20;99.90;;;;;;4916062;29;20465;-68
2021/06/20 06:57:31;;;;;;;6.00;3.53;;;23.20;99.90;;;;;;4915529;29;20495;-68
2021/06/20 06:59:58;;;;;;;11.97;4.20;;;23.20;99.90;;;;;;4915085;29;20461;-68
2021/06/20 07:02:25;;;;;;;6.47;3.80;;;23.20;99.90;;;;;;4915720;29;20476;-68
2021/06/20 07:04:52;;;;;;;8.63;4.40;;;23.20;99.90;;;;;;4915803;29;20470;-68
2021/06/20 07:07:20;;;;;;;9.30;3.97;;;23.20;99.90;;;;;;4915544;29;20504;-68
2021/06/20 07:09:47;;;;;;;11.70;3.63;;;23.30;99.90;;;;;;4914817;29;20493;-68
2021/06/20 07:12:13;;;;;;;5.97;3.60;;;23.30;99.90;;;;;;4915594;29;20470;-68
2021/06/20 07:14:40;;;;;;;9.30;4.47;;;23.30;99.90;;;;;;4915737;29;20466;-68
2021/06/20 07:17:09;;;;;;;8.83;3.90;;;23.30;99.90;;;;;;4914999;29;20477;-68
2021/06/20 07:19:36;;;;;;;7.70;3.90;;;23.30;99.90;;;;;;4914826;29;20469;-68
2021/06/20 07:22:03;;;;;;;6.97;4.40;;;23.30;99.90;;;;;;4915140;29;20465;-68
2021/06/20 07:24:31;;;;;;;6.50;3.97;;;23.40;99.90;;;;;;4915094;29;20466;-68
2021/06/20 07:26:58;;;;;;;7.13;4.40;;;23.50;99.90;;;;;;4913617;29;21039;-69
2021/06/20 07:29:25;;;;;;;8.43;4.60;;;23.50;99.90;;;;;;4913253;29;20492;-69
2021/06/20 07:31:52;;;;;;;7.10;4.27;;;23.60;99.90;;;;;;4915265;29;20524;-68
2021/06/20 07:34:18;;;;;;;10.40;4.70;;;23.60;99.90;;;;;;4914471;29;20470;-68
2021/06/20 07:36:45;;;;;;;9.60;4.67;;;23.70;99.90;;;;;;4914511;29;21031;-68
2021/06/20 07:39:12;;;;;;;10.90;4.40;;;23.60;99.90;;;;;;4913719;29;20462;-68
2021/06/20 07:41:40;;;;;;;7.63;4.00;;;23.60;99.90;;;;;;4914266;29;20472;-68
2021/06/20 07:44:07;;;;;;;7.78;4.20;;;23.60;99.90;;;;;;4913656;29;20467;-68
2021/06/20 07:46:33;;;;;;;11.93;4.87;;;23.60;99.90;;;;;;4913984;29;20226;-68
2021/06/20 07:49:00;;;;;;;13.73;4.57;;;23.60;99.90;;;;;;4914506;29;20520;-68
2021/06/20 07:51:27;;;;;;;9.37;4.17;;;23.60;99.90;;;;;;4913445;29;20501;-68
2021/06/20 07:53:54;;;;;;;5.30;3.67;;;23.70;99.90;;;;;;4913890;29;20476;-68
2021/06/20 07:56:21;;;;;;;12.60;4.83;;;23.70;99.90;;;;;;4914236;29;20527;-68
2021/06/20 07:58:49;;;;;;;7.10;4.20;;;23.60;99.90;;;;;;4914074;29;20521;-68
2021/06/20 08:01:16;;;;;;;9.03;3.93;;;23.60;99.90;;;;;;4913541;29;20991;-68
2021/06/20 08:03:42;;;;;;;11.80;4.40;;;23.60;99.90;;;;;;4911634;29;20493;-68
2021/06/20 08:06:09;;;;;;;6.90;4.30;;;23.60;99.90;;;;;;4912907;29;20495;-68
2021/06/20 08:08:39;;;;;;;9.27;3.77;;;23.70;99.90;;;;;;4912632;29;20844;-68
2021/06/20 08:11:06;;;;;;;5.33;3.67;;;23.70;99.90;;;;;;4916477;29;20499;-68
2021/06/20 08:13:40;;;;;;;8.67;4.10;;;23.60;99.90;;;;;;4910487;29;20561;-68
2021/06/20 08:16:08;;;;;;;6.07;3.33;;;23.60;99.90;;;;;;4912396;29;20992;-68
2021/06/20 08:18:35;;;;;;;7.87;4.00;;;23.70;99.90;;;;;;4912596;29;21067;-68
2021/06/20 08:21:03;;;;;;;8.70;3.77;;;23.70;99.90;;;;;;4911370;29;20462;-68
2021/06/20 08:23:33;;;;;;;8.33;3.77;;;23.80;99.90;;;;;;4911948;29;20469;-68
2021/06/20 08:26:00;;;;;;;12.30;4.70;;;23.80;99.90;;;;;;4912238;29;20511;-68
2021/06/20 08:28:28;;;;;;;8.07;4.20;;;23.80;99.90;;;;;;4910892;29;21235;-68
2021/06/20 08:30:59;;;;;;;7.60;4.20;;;23.90;99.90;;;;;;4911701;29;21016;-68
2021/06/20 08:33:27;;;;;;;13.97;4.63;;;23.80;99.90;;;;;;4911754;29;20492;-70
2021/06/20 08:35:55;;;;;;;8.43;4.20;;;23.90;99.90;;;;;;4911656;29;20533;-73
2021/06/20 08:38:22;;;;;;;8.20;4.30;;;23.90;99.90;;;;;;4911263;29;20521;-69
2021/06/20 08:40:49;;;;;;;10.00;3.90;;;24.00;99.90;;;;;;4909625;29;20533;-69
2021/06/20 08:43:19;;;;;;;6.80;4.33;;;24.00;99.90;;;;;;4909860;29;20473;-70
2021/06/20 08:45:51;;;;;;;6.57;4.07;;;24.10;99.90;;;;;;4911257;29;20470;-70
2021/06/20 08:48:19;;;;;;;9.40;4.47;;;24.20;99.90;;;;;;4911778;29;20553;-70
2021/06/20 08:50:50;;;;;;;10.20;4.20;;;24.20;99.90;;;;;;4914068;29;21321;-66
2021/06/20 08:53:18;;;;;;;6.43;4.10;;;24.20;99.90;;;;;;4910273;29;20470;-70
2021/06/20 08:55:47;;;;;;;9.67;4.20;;;24.30;99.90;;;;;;4909132;29;20992;-69
2021/06/20 08:58:23;;;;;;;6.13;4.37;;;24.20;99.90;;;;;;4909468;29;20522;-69
2021/06/20 09:00:55;;;;;;;8.20;4.80;;;24.30;99.90;;;;;;4911582;29;21052;-69
2021/06/20 09:03:23;;;;;;;7.20;5.00;;;24.20;99.90;;;;;;4913115;29;20992;-69
2021/06/20 09:06:02;;;;;;;7.23;5.20;;;24.20;99.90;;;;;;4911459;29;20465;-70
2021/06/20 09:08:30;;;;;;;9.23;4.37;;;24.30;99.90;;;;;;4911228;29;20473;-68
2021/06/20 09:10:58;;;;;;;8.37;4.97;;;24.30;99.90;;;;;;4910669;29;20490;-69
2021/06/20 09:13:35;;;;;;;14.50;5.50;;;24.30;99.90;;;;;;4911849;29;20469;-69
2021/06/20 09:16:04;;;;;;;12.33;5.37;;;24.30;99.90;;;;;;4912288;29;20465;-69
2021/06/20 09:18:31;;;;;;;14.70;5.40;;;24.30;99.90;;;;;;4912008;29;20476;-69
2021/06/20 09:20:58;;;;;;;13.60;5.07;;;24.30;99.90;;;;;;4913059;29;20470;-70
2021/06/20 09:23:26;;;;;;;12.43;5.93;;;24.30;99.90;;;;;;4911881;29;20485;-69
2021/06/20 09:25:57;;;;;;;10.53;4.60;;;24.20;99.90;;;;;;4912834;29;20517;-69
2021/06/20 09:28:33;;;;;;;11.23;5.17;;;24.30;99.90;;;;;;4912369;29;21130;-69
2021/06/20 09:31:03;;;;;;;10.27;4.43;;;24.30;99.90;;;;;;4911269;29;20496;-69
2021/06/20 09:33:34;;;;;;;7.23;3.80;;;24.30;99.90;;;;;;4912194;29;20472;-69
2021/06/20 09:36:05;;;;;;;6.10;4.33;;;24.30;99.90;;;;;;4909298;29;20561;-69
2021/06/20 09:38:40;;;;;;;9.27;4.37;;;24.40;99.90;;;;;;4910454;29;20466;-70
2021/06/20 09:41:09;;;;;;;6.13;4.20;;;24.50;99.90;;;;;;4910479;29;20464;-70
2021/06/20 09:43:38;;;;;;;8.10;3.90;;;24.50;99.90;;;;;;4911039;29;20469;-69
2021/06/20 09:46:15;;;;;;;9.00;4.07;;;24.50;99.90;;;;;;4911069;29;20474;-69
2021/06/20 09:48:45;;;;;;;5.30;3.17;;;24.60;99.90;;;;;;4908274;29;21024;-70
2021/06/20 09:51:21;;;;;;;11.10;3.37;;;24.60;99.90;;;;;;4910248;29;20486;-69
2021/06/20 09:53:51;;;;;;;6.07;3.43;;;24.70;99.90;;;;;;4911564;29;20489;-69
2021/06/20 09:56:21;;;;;;;9.93;4.20;;;24.80;99.90;;;;;;4911481;29;20933;-70
2021/06/20 09:58:56;;;;;;;6.10;3.10;;;24.90;99.90;;;;;;4911256;29;20880;-70
2021/06/20 10:01:26;;;;;;;7.50;3.10;;;24.90;99.90;;;;;;4912875;29;20533;-70
2021/06/20 10:03:55;;;;;;;6.60;3.60;;;24.90;99.90;;;;;;4915115;29;20470;-70
2021/06/20 10:06:22;;;;;;;5.00;2.80;;;24.80;99.90;;;;;;4916634;29;20497;-69
2021/06/20 10:08:51;;;;;;;5.57;3.30;;;24.80;99.90;;;;;;4911767;29;20497;-68
2021/06/20 10:11:19;;;;;;;8.50;2.63;;;24.80;99.90;;;;;;4910486;29;20482;-69
2021/06/20 10:13:47;;;;;;;6.90;3.30;;;24.80;99.90;;;;;;4912387;29;20501;-68
2021/06/20 10:16:24;;;;;;;6.30;3.10;;;24.80;99.90;;;;;;4910506;29;20509;-69
2021/06/20 10:18:54;;;;;;;9.20;3.30;;;24.80;99.90;;;;;;4913871;29;20876;-68
2021/06/20 10:21:34;;;;;;;3.77;3.03;;;24.80;99.90;;;;;;4914527;29;20464;-69
2021/06/20 10:24:18;;;;;;;5.47;2.67;;;24.80;99.90;;;;;;4914749;29;20468;-68
2021/06/20 10:26:58;;;;;;;3.60;2.70;;;24.70;99.90;;;;;;4914626;29;20493;-68
2021/06/20 10:29:30;;;;;;;7.13;3.50;;;24.70;99.90;;;;;;4911796;29;20521;-69
2021/06/20 10:32:03;;;;;;;5.30;3.20;;;24.70;99.90;;;;;;4913436;29;20529;-68
2021/06/20 10:34:32;;;;;;;5.03;2.80;;;24.70;99.90;;;;;;4913587;29;20465;-68
2021/06/20 10:37:06;;;;;;;6.07;3.20;;;24.70;99.90;;;;;;4913566;29;20508;-69
2021/06/20 10:39:35;;;;;;;6.80;3.23;;;24.70;99.90;;;;;;4911561;29;20760;-68
2021/06/20 10:42:07;;;;;;;10.83;3.00;;;24.80;99.90;;;;;;4911691;29;20879;-69
2021/06/20 10:44:50;;;;;;;6.30;3.30;;;24.80;99.90;;;;;;4913181;29;20468;-69
2021/06/20 10:47:29;;;;;;;4.37;2.53;;;24.80;99.90;;;;;;4912650;29;20544;-68
2021/06/20 10:49:57;;;;;;;8.13;3.53;;;24.90;99.90;;;;;;4912542;29;20571;-68
2021/06/20 10:52:24;;;;;;;3.73;2.90;;;24.90;99.90;;;;;;4912578;29;20503;-69
2021/06/20 10:55:05;;;;;;;6.60;3.10;;;25.00;99.90;;;;;;4912873;29;20465;-68
2021/06/20 10:57:31;;;;;;;5.83;3.37;;;25.00;99.90;;;;;;4912362;29;20865;-68
2021/06/20 10:59:59;;;;;;;6.57;2.73;;;25.10;99.90;;;;;;4912167;29;20521;-69
2021/06/20 11:02:32;;;;;;;7.13;3.40;;;25.20;99.90;;;;;;4912662;29;20969;-69
2021/06/20 11:05:03;;;;;;;7.63;3.97;;;25.20;99.90;;;;;;4912658;29;20528;-69
2021/06/20 11:07:30;;;;;;;6.37;3.30;;;25.30;99.90;;;;;;4912353;29;20485;-68
2021/06/20 11:09:58;;;;;;;8.80;4.00;;;25.40;99.90;;;;;;4912275;29;20461;-68
2021/06/20 11:12:26;;;;;;;7.80;3.47;;;25.50;99.90;;;;;;4911911;29;20496;-68
2021/06/20 11:14:54;;;;;;;8.00;3.80;;;25.60;99.90;;;;;;4912632;29;20470;-68
2021/06/20 11:17:22;;;;;;;6.33;3.47;;;25.60;99.90;;;;;;4911678;29;20576;-68
2021/06/20 11:19:48;;;;;;;7.40;3.50;;;25.70;99.90;;;;;;4912258;29;20473;-68
2021/06/20 11:22:15;;;;;;;7.57;3.17;;;25.80;99.90;;;;;;4912774;29;20474;-68
2021/06/20 11:24:46;;;;;;;6.60;3.60;;;26.00;99.90;;;;;;4912131;29;20466;-68
2021/06/20 11:27:15;;;;;;;4.10;2.70;;;26.10;99.90;;;;;;4911588;29;20493;-68
2021/06/20 11:29:44;;;;;;;8.07;3.13;;;26.30;99.90;;;;;;4910169;29;20468;-68
2021/06/20 11:32:19;;;;;;;7.17;3.33;;;26.50;99.90;;;;;;4913827;29;20507;-68
2021/06/20 11:34:53;;;;;;;5.57;3.10;;;26.70;99.90;;;;;;4912605;29;20469;-69
2021/06/20 11:37:22;;;;;;;10.80;3.30;;;26.80;99.90;;;;;;4913403;29;20508;-69
2021/06/20 11:39:51;;;;;;;6.20;3.10;;;27.10;99.90;;;;;;4914046;29;20470;-69
2021/06/20 11:42:28;;;;;;;7.40;3.80;;;27.20;99.90;;;;;;4914173;29;20533;-70
2021/06/20 11:45:00;;;;;;;9.90;3.77;;;27.40;99.90;;;;;;4916112;29;20470;-69
2021/06/20 11:50:17;;;;;;;6.93;3.13;;;27.60;99.90;;;;;;4908143;29;20463;-69
2021/06/20 11:52:47;;;;;;;12.07;4.90;;;27.70;99.90;;;;;;4914250;29;20562;-70
2021/06/20 11:55:17;;;;;;;12.20;3.83;;;27.80;99.90;;;;;;4911684;29;20476;-70
2021/06/20 11:57:47;;;;;;;7.93;4.23;;;27.80;99.90;;;;;;4912566;29;20500;-69
2021/06/20 12:00:17;;;;;;;15.83;4.20;;;27.70;99.90;;;;;;4902837;29;20479;-70
2021/06/20 12:02:45;;;;;;;14.87;4.20;;;27.70;99.90;;;;;;4907729;29;20512;-70
2021/06/20 12:05:14;;;;;;;10.50;4.17;;;27.80;99.90;;;;;;4910477;29;20494;-70
2021/06/20 12:07:41;;;;;;;17.50;4.40;;;27.90;99.90;;;;;;4910561;29;20491;-69
2021/06/20 12:10:09;;;;;;;11.70;4.17;;;28.00;99.90;;;;;;4910132;29;20950;-69
2021/06/20 12:12:38;;;;;;;12.50;5.13;;;28.10;99.90;;;;;;4909570;29;21010;-69
2021/06/20 12:15:08;;;;;;;8.73;4.37;;;28.10;99.90;;;;;;4910059;29;20465;-69
2021/06/20 12:17:36;;;;;;;10.80;4.90;;;28.10;99.90;;;;;;4909290;29;20499;-69
2021/06/20 12:20:03;;;;;;;11.67;4.60;;;28.00;99.90;;;;;;4908654;29;20471;-69
2021/06/20 12:22:30;;;;;;;11.27;4.80;;;27.90;99.90;;;;;;4909627;29;20472;-69
2021/06/20 12:24:58;;;;;;;12.53;4.90;;;27.80;99.90;;;;;;4909959;29;20843;-69
2021/06/20 12:27:31;;;;;;;12.07;4.33;;;27.80;99.90;;;;;;4910325;29;21366;-70
2021/06/20 12:29:57;;;;;;;10.00;4.20;;;28.00;99.90;;;;;;4909691;29;20919;-70
2021/06/20 12:32:26;;;;;;;13.40;4.93;;;28.20;99.90;;;;;;4909329;29;20496;-70
2021/06/20 12:34:55;;;;;;;14.37;4.03;;;28.20;99.90;;;;;;4910548;29;20476;-69
2021/06/20 12:37:23;;;;;;;11.90;4.20;;;28.40;99.90;;;;;;4909865;29;20505;-69
2021/06/20 12:39:51;;;;;;;11.33;3.47;;;28.50;99.90;;;;;;4909688;29;20490;-69
2021/06/20 12:42:19;;;;;;;12.17;4.17;;;28.60;99.90;;;;;;4910096;29;20946;-69
2021/06/20 12:44:49;;;;;;;10.80;4.50;;;28.70;99.90;;;;;;4910572;29;20476;-69
2021/06/20 12:47:17;;;;;;;11.33;4.73;;;28.70;99.90;;;;;;4909442;29;20515;-70
2021/06/20 12:49:51;;;;;;;9.90;4.13;;;28.80;99.90;;;;;;4909083;29;20805;-69